sensor_id;sensor_type;location;lat;lon;timestamp;P1;durP1;ratioP1;P2;durP2;ratioP2
30462;SDS011;17256;43.618;25.336;2023-10-31T00:03:05;8.90;;;6.27;;
30462;SDS011;17256;43.618;25.336;2023-10-31T00:13:30;11.80;;;7.43;;
30462;SDS011;17256;43.618;25.336;2023-10-31T00:16:40;13.00;;;6.73;;
30462;SDS011;17256;43.618;25.336;2023-10-31T00:19:23;8.33;;;7.07;;
30462;SDS011;17256;43.618;25.336;2023-10-31T00:25:12;7.90;;;5.93;;
30462;SDS011;17256;43.618;25.336;2023-10-31T00:27:55;12.77;;;6.23;;
30462;SDS011;17256;43.618;25.336;2023-10-31T00:30:29;9.80;;;6.37;;
30462;SDS011;17256;43.618;25.336;2023-10-31T00:36:31;10.97;;;6.73;;
30462;SDS011;17256;43.618;25.336;2023-10-31T00:39:43;7.83;;;6.37;;
30462;SDS011;17256;43.618;25.336;2023-10-31T00:43:07;11.53;;;6.60;;
30462;SDS011;17256;43.618;25.336;2023-10-31T00:48:52;7.73;;;6.20;;
30462;SDS011;17256;43.618;25.336;2023-10-31T00:52:17;9.17;;;6.27;;
30462;SDS011;17256;43.618;25.336;2023-10-31T00:55:27;11.30;;;6.60;;
30462;SDS011;17256;43.618;25.336;2023-10-31T00:58:12;8.30;;;5.53;;
30462;SDS011;17256;43.618;25.336;2023-10-31T01:01:06;7.50;;;5.90;;
30462;SDS011;17256;43.618;25.336;2023-10-31T01:03:41;6.70;;;5.80;;
30462;SDS011;17256;43.618;25.336;2023-10-31T01:06:19;12.50;;;6.30;;
30462;SDS011;17256;43.618;25.336;2023-10-31T01:09:08;6.60;;;5.37;;
30462;SDS011;17256;43.618;25.336;2023-10-31T01:14:49;10.63;;;6.30;;
30462;SDS011;17256;43.618;25.336;2023-10-31T01:17:35;7.50;;;5.30;;
30462;SDS011;17256;43.618;25.336;2023-10-31T01:20:38;10.40;;;4.90;;
30462;SDS011;17256;43.618;25.336;2023-10-31T01:23:42;10.60;;;5.73;;
30462;SDS011;17256;43.618;25.336;2023-10-31T01:26:36;10.77;;;5.77;;
30462;SDS011;17256;43.618;25.336;2023-10-31T01:30:00;7.97;;;5.27;;
30462;SDS011;17256;43.618;25.336;2023-10-31T01:36:12;12.73;;;7.50;;
30462;SDS011;17256;43.618;25.336;2023-10-31T01:40:13;7.17;;;5.20;;
30462;SDS011;17256;43.618;25.336;2023-10-31T01:46:49;12.80;;;6.10;;
30462;SDS011;17256;43.618;25.336;2023-10-31T01:49:29;10.37;;;6.60;;
30462;SDS011;17256;43.618;25.336;2023-10-31T01:55:52;9.33;;;6.27;;
30462;SDS011;17256;43.618;25.336;2023-10-31T02:09:17;10.43;;;6.60;;
30462;SDS011;17256;43.618;25.336;2023-10-31T02:15:36;12.47;;;6.97;;
30462;SDS011;17256;43.618;25.336;2023-10-31T02:22:24;7.80;;;5.60;;
30462;SDS011;17256;43.618;25.336;2023-10-31T02:25:46;8.43;;;5.70;;
30462;SDS011;17256;43.618;25.336;2023-10-31T02:38:49;10.80;;;6.73;;
30462;SDS011;17256;43.618;25.336;2023-10-31T02:46:25;10.30;;;6.83;;
30462;SDS011;17256;43.618;25.336;2023-10-31T02:50:01;9.33;;;6.40;;
30462;SDS011;17256;43.618;25.336;2023-10-31T02:53:45;12.63;;;6.80;;
30462;SDS011;17256;43.618;25.336;2023-10-31T02:57:55;9.13;;;6.63;;
30462;SDS011;17256;43.618;25.336;2023-10-31T03:01:39;10.70;;;7.23;;
30462;SDS011;17256;43.618;25.336;2023-10-31T03:05:12;13.70;;;7.03;;
30462;SDS011;17256;43.618;25.336;2023-10-31T03:09:21;13.77;;;8.57;;
30462;SDS011;17256;43.618;25.336;2023-10-31T03:20:34;11.57;;;8.80;;
30462;SDS011;17256;43.618;25.336;2023-10-31T03:23:17;23.63;;;8.90;;
30462;SDS011;17256;43.618;25.336;2023-10-31T03:26:48;14.73;;;8.47;;
30462;SDS011;17256;43.618;25.336;2023-10-31T03:37:37;13.60;;;8.57;;
30462;SDS011;17256;43.618;25.336;2023-10-31T03:45:16;13.97;;;8.43;;
30462;SDS011;17256;43.618;25.336;2023-10-31T04:03:59;12.27;;;8.10;;
30462;SDS011;17256;43.618;25.336;2023-10-31T04:08:05;12.03;;;7.93;;
30462;SDS011;17256;43.618;25.336;2023-10-31T04:15:17;9.37;;;7.10;;
30462;SDS011;17256;43.618;25.336;2023-10-31T04:30:23;9.57;;;7.63;;
30462;SDS011;17256;43.618;25.336;2023-10-31T04:43:49;29.97;;;22.77;;
30462;SDS011;17256;43.618;25.336;2023-10-31T04:47:18;12.60;;;11.20;;
30462;SDS011;17256;43.618;25.336;2023-10-31T05:11:25;14.13;;;10.43;;
30462;SDS011;17256;43.618;25.336;2023-10-31T05:26:16;15.47;;;10.43;;
30462;SDS011;17256;43.618;25.336;2023-10-31T05:30:23;15.97;;;10.50;;
30462;SDS011;17256;43.618;25.336;2023-10-31T05:36:59;16.10;;;10.47;;
30462;SDS011;17256;43.618;25.336;2023-10-31T05:39:44;13.93;;;9.27;;
30462;SDS011;17256;43.618;25.336;2023-10-31T05:42:36;12.70;;;8.43;;
30462;SDS011;17256;43.618;25.336;2023-10-31T05:45:46;13.33;;;9.17;;
30462;SDS011;17256;43.618;25.336;2023-10-31T05:48:37;13.87;;;10.13;;
30462;SDS011;17256;43.618;25.336;2023-10-31T05:51:15;15.33;;;9.83;;
30462;SDS011;17256;43.618;25.336;2023-10-31T05:54:06;14.37;;;10.50;;
30462;SDS011;17256;43.618;25.336;2023-10-31T05:57:14;12.77;;;9.97;;
30462;SDS011;17256;43.618;25.336;2023-10-31T06:00:38;17.33;;;9.37;;
30462;SDS011;17256;43.618;25.336;2023-10-31T06:03:26;16.17;;;9.23;;
30462;SDS011;17256;43.618;25.336;2023-10-31T06:06:15;12.87;;;11.17;;
30462;SDS011;17256;43.618;25.336;2023-10-31T06:12:18;19.87;;;11.00;;
30462;SDS011;17256;43.618;25.336;2023-10-31T06:15:06;14.90;;;11.40;;
30462;SDS011;17256;43.618;25.336;2023-10-31T06:18:01;15.83;;;11.47;;
30462;SDS011;17256;43.618;25.336;2023-10-31T06:20:54;14.50;;;10.87;;
30462;SDS011;17256;43.618;25.336;2023-10-31T06:23:59;16.67;;;12.40;;
30462;SDS011;17256;43.618;25.336;2023-10-31T06:26:36;18.17;;;11.97;;
30462;SDS011;17256;43.618;25.336;2023-10-31T06:29:28;22.87;;;11.47;;
30462;SDS011;17256;43.618;25.336;2023-10-31T06:32:10;13.97;;;11.00;;
30462;SDS011;17256;43.618;25.336;2023-10-31T06:46:37;18.60;;;12.60;;
30462;SDS011;17256;43.618;25.336;2023-10-31T06:50:45;19.50;;;12.93;;
30462;SDS011;17256;43.618;25.336;2023-10-31T06:54:19;22.43;;;12.60;;
30462;SDS011;17256;43.618;25.336;2023-10-31T07:01:41;16.57;;;10.70;;
30462;SDS011;17256;43.618;25.336;2023-10-31T07:05:24;18.07;;;11.30;;
30462;SDS011;17256;43.618;25.336;2023-10-31T07:31:15;16.53;;;14.73;;
30462;SDS011;17256;43.618;25.336;2023-10-31T07:35:05;27.00;;;13.73;;
30462;SDS011;17256;43.618;25.336;2023-10-31T07:43:01;20.20;;;14.23;;
30462;SDS011;17256;43.618;25.336;2023-10-31T07:46:25;20.03;;;15.40;;
30462;SDS011;17256;43.618;25.336;2023-10-31T07:49:25;18.10;;;16.23;;
30462;SDS011;17256;43.618;25.336;2023-10-31T08:00:19;23.37;;;17.00;;
30462;SDS011;17256;43.618;25.336;2023-10-31T08:18:47;21.63;;;16.10;;
30462;SDS011;17256;43.618;25.336;2023-10-31T08:26:49;23.43;;;15.93;;
30462;SDS011;17256;43.618;25.336;2023-10-31T08:37:25;19.97;;;13.03;;
30462;SDS011;17256;43.618;25.336;2023-10-31T08:52:56;20.73;;;14.20;;
30462;SDS011;17256;43.618;25.336;2023-10-31T10:38:51;8.47;;;3.27;;
30462;SDS011;17256;43.618;25.336;2023-10-31T10:45:58;7.93;;;3.03;;
30462;SDS011;17256;43.618;25.336;2023-10-31T10:48:25;7.17;;;3.20;;
30462;SDS011;17256;43.618;25.336;2023-10-31T10:50:57;6.30;;;3.03;;
30462;SDS011;17256;43.618;25.336;2023-10-31T10:53:35;7.63;;;3.57;;
30462;SDS011;17256;43.618;25.336;2023-10-31T10:56:09;7.73;;;3.20;;
30462;SDS011;17256;43.618;25.336;2023-10-31T10:58:51;14.13;;;3.17;;
30462;SDS011;17256;43.618;25.336;2023-10-31T11:01:20;7.83;;;3.77;;
30462;SDS011;17256;43.618;25.336;2023-10-31T11:03:46;7.37;;;3.80;;
30462;SDS011;17256;43.618;25.336;2023-10-31T11:06:12;4.00;;;3.00;;
30462;SDS011;17256;43.618;25.336;2023-10-31T11:08:42;4.50;;;3.70;;
30462;SDS011;17256;43.618;25.336;2023-10-31T11:11:09;4.80;;;2.77;;
30462;SDS011;17256;43.618;25.336;2023-10-31T11:13:37;6.73;;;3.13;;
30462;SDS011;17256;43.618;25.336;2023-10-31T11:16:10;9.53;;;4.83;;
30462;SDS011;17256;43.618;25.336;2023-10-31T11:18:40;8.83;;;4.33;;
30462;SDS011;17256;43.618;25.336;2023-10-31T11:21:07;8.00;;;3.43;;
30462;SDS011;17256;43.618;25.336;2023-10-31T11:23:32;10.00;;;3.30;;
30462;SDS011;17256;43.618;25.336;2023-10-31T11:25:58;5.70;;;3.20;;
30462;SDS011;17256;43.618;25.336;2023-10-31T11:28:24;6.80;;;4.13;;
30462;SDS011;17256;43.618;25.336;2023-10-31T11:30:50;7.57;;;3.00;;
30462;SDS011;17256;43.618;25.336;2023-10-31T11:33:17;4.87;;;3.13;;
30462;SDS011;17256;43.618;25.336;2023-10-31T11:36:06;9.83;;;3.53;;
30462;SDS011;17256;43.618;25.336;2023-10-31T11:38:32;7.90;;;3.67;;
30462;SDS011;17256;43.618;25.336;2023-10-31T11:41:01;12.30;;;3.50;;
30462;SDS011;17256;43.618;25.336;2023-10-31T11:46:24;9.60;;;3.47;;
30462;SDS011;17256;43.618;25.336;2023-10-31T11:48:53;9.20;;;4.17;;
30462;SDS011;17256;43.618;25.336;2023-10-31T11:51:21;11.77;;;3.90;;
30462;SDS011;17256;43.618;25.336;2023-10-31T11:53:51;7.57;;;3.57;;
30462;SDS011;17256;43.618;25.336;2023-10-31T11:56:18;6.97;;;3.73;;
30462;SDS011;17256;43.618;25.336;2023-10-31T11:58:54;6.13;;;2.93;;
30462;SDS011;17256;43.618;25.336;2023-10-31T12:01:20;7.87;;;3.53;;
30462;SDS011;17256;43.618;25.336;2023-10-31T12:03:45;6.43;;;3.53;;
30462;SDS011;17256;43.618;25.336;2023-10-31T12:06:14;3.67;;;2.80;;
30462;SDS011;17256;43.618;25.336;2023-10-31T12:08:41;5.37;;;3.07;;
30462;SDS011;17256;43.618;25.336;2023-10-31T12:11:12;5.80;;;3.13;;
30462;SDS011;17256;43.618;25.336;2023-10-31T12:14:02;5.83;;;3.53;;
30462;SDS011;17256;43.618;25.336;2023-10-31T12:16:36;4.10;;;3.23;;
30462;SDS011;17256;43.618;25.336;2023-10-31T12:19:02;4.90;;;3.37;;
30462;SDS011;17256;43.618;25.336;2023-10-31T12:21:45;7.70;;;3.60;;
30462;SDS011;17256;43.618;25.336;2023-10-31T12:24:14;4.83;;;3.20;;
30462;SDS011;17256;43.618;25.336;2023-10-31T12:26:40;5.93;;;3.33;;
30462;SDS011;17256;43.618;25.336;2023-10-31T12:29:16;5.20;;;3.80;;
30462;SDS011;17256;43.618;25.336;2023-10-31T12:31:44;4.73;;;3.57;;
30462;SDS011;17256;43.618;25.336;2023-10-31T12:34:11;4.93;;;3.30;;
30462;SDS011;17256;43.618;25.336;2023-10-31T12:40:31;5.17;;;3.83;;
30462;SDS011;17256;43.618;25.336;2023-10-31T12:42:57;8.67;;;4.67;;
30462;SDS011;17256;43.618;25.336;2023-10-31T12:45:24;6.43;;;3.87;;
30462;SDS011;17256;43.618;25.336;2023-10-31T12:48:10;4.53;;;3.23;;
30462;SDS011;17256;43.618;25.336;2023-10-31T12:50:37;6.07;;;3.10;;
30462;SDS011;17256;43.618;25.336;2023-10-31T12:53:08;4.23;;;3.17;;
30462;SDS011;17256;43.618;25.336;2023-10-31T12:55:38;5.30;;;3.23;;
30462;SDS011;17256;43.618;25.336;2023-10-31T12:58:07;7.83;;;3.40;;
30462;SDS011;17256;43.618;25.336;2023-10-31T13:00:35;3.03;;;2.73;;
30462;SDS011;17256;43.618;25.336;2023-10-31T13:03:02;10.73;;;4.43;;
30462;SDS011;17256;43.618;25.336;2023-10-31T13:05:29;5.63;;;3.63;;
30462;SDS011;17256;43.618;25.336;2023-10-31T13:07:55;7.50;;;3.17;;
30462;SDS011;17256;43.618;25.336;2023-10-31T13:10:26;7.40;;;3.60;;
30462;SDS011;17256;43.618;25.336;2023-10-31T13:12:52;10.80;;;3.60;;
30462;SDS011;17256;43.618;25.336;2023-10-31T13:15:22;8.57;;;3.73;;
30462;SDS011;17256;43.618;25.336;2023-10-31T13:17:49;9.17;;;3.80;;
30462;SDS011;17256;43.618;25.336;2023-10-31T13:20:16;6.03;;;2.93;;
30462;SDS011;17256;43.618;25.336;2023-10-31T13:22:44;6.27;;;3.40;;
30462;SDS011;17256;43.618;25.336;2023-10-31T13:25:11;6.57;;;3.43;;
30462;SDS011;17256;43.618;25.336;2023-10-31T13:27:39;15.17;;;4.37;;
30462;SDS011;17256;43.618;25.336;2023-10-31T13:30:07;5.23;;;3.80;;
30462;SDS011;17256;43.618;25.336;2023-10-31T13:32:33;5.40;;;3.50;;
30462;SDS011;17256;43.618;25.336;2023-10-31T13:34:59;5.67;;;3.60;;
30462;SDS011;17256;43.618;25.336;2023-10-31T13:37:25;7.20;;;3.70;;
30462;SDS011;17256;43.618;25.336;2023-10-31T13:39:52;5.93;;;3.57;;
30462;SDS011;17256;43.618;25.336;2023-10-31T13:46:33;46.67;;;7.37;;
30462;SDS011;17256;43.618;25.336;2023-10-31T15:06:47;8.67;;;6.23;;
30462;SDS011;17256;43.618;25.336;2023-10-31T15:12:47;9.43;;;5.30;;
30462;SDS011;17256;43.618;25.336;2023-10-31T15:18:23;13.80;;;8.60;;
30462;SDS011;17256;43.618;25.336;2023-10-31T15:21:14;24.53;;;8.77;;
30462;SDS011;17256;43.618;25.336;2023-10-31T15:23:54;18.37;;;7.80;;
30462;SDS011;17256;43.618;25.336;2023-10-31T15:26:48;24.20;;;7.23;;
30462;SDS011;17256;43.618;25.336;2023-10-31T15:29:41;16.67;;;5.53;;
30462;SDS011;17256;43.618;25.336;2023-10-31T15:32:08;9.30;;;4.53;;
30462;SDS011;17256;43.618;25.336;2023-10-31T15:34:45;7.67;;;5.50;;
30462;SDS011;17256;43.618;25.336;2023-10-31T15:40:26;12.67;;;4.27;;
30462;SDS011;17256;43.618;25.336;2023-10-31T15:43:05;9.90;;;4.93;;
30462;SDS011;17256;43.618;25.336;2023-10-31T15:45:36;7.97;;;4.73;;
30462;SDS011;17256;43.618;25.336;2023-10-31T15:48:09;11.07;;;4.33;;
30462;SDS011;17256;43.618;25.336;2023-10-31T15:50:41;12.93;;;5.43;;
30462;SDS011;17256;43.618;25.336;2023-10-31T15:53:13;8.33;;;5.83;;
30462;SDS011;17256;43.618;25.336;2023-10-31T15:55:39;11.40;;;5.43;;
30462;SDS011;17256;43.618;25.336;2023-10-31T15:58:05;11.00;;;4.87;;
30462;SDS011;17256;43.618;25.336;2023-10-31T16:00:32;10.50;;;5.10;;
30462;SDS011;17256;43.618;25.336;2023-10-31T16:02:58;13.13;;;6.13;;
30462;SDS011;17256;43.618;25.336;2023-10-31T16:05:27;9.47;;;5.07;;
30462;SDS011;17256;43.618;25.336;2023-10-31T16:07:57;15.03;;;5.77;;
30462;SDS011;17256;43.618;25.336;2023-10-31T16:10:29;13.90;;;6.33;;
30462;SDS011;17256;43.618;25.336;2023-10-31T16:12:57;13.90;;;6.43;;
30462;SDS011;17256;43.618;25.336;2023-10-31T16:15:25;21.17;;;9.00;;
30462;SDS011;17256;43.618;25.336;2023-10-31T16:17:52;18.27;;;9.93;;
30462;SDS011;17256;43.618;25.336;2023-10-31T16:20:21;15.70;;;9.97;;
30462;SDS011;17256;43.618;25.336;2023-10-31T16:22:57;17.83;;;7.90;;
30462;SDS011;17256;43.618;25.336;2023-10-31T16:25:25;11.53;;;7.50;;
30462;SDS011;17256;43.618;25.336;2023-10-31T16:27:56;13.90;;;9.47;;
30462;SDS011;17256;43.618;25.336;2023-10-31T16:30:25;17.67;;;7.77;;
30462;SDS011;17256;43.618;25.336;2023-10-31T16:32:51;16.27;;;8.67;;
30462;SDS011;17256;43.618;25.336;2023-10-31T16:35:19;11.80;;;7.40;;
30462;SDS011;17256;43.618;25.336;2023-10-31T16:37:51;10.40;;;6.00;;
30462;SDS011;17256;43.618;25.336;2023-10-31T16:40:20;10.47;;;7.50;;
30462;SDS011;17256;43.618;25.336;2023-10-31T16:42:49;8.47;;;5.80;;
30462;SDS011;17256;43.618;25.336;2023-10-31T16:45:17;14.57;;;7.63;;
30462;SDS011;17256;43.618;25.336;2023-10-31T16:47:44;9.77;;;5.70;;
30462;SDS011;17256;43.618;25.336;2023-10-31T16:50:12;10.13;;;5.23;;
30462;SDS011;17256;43.618;25.336;2023-10-31T16:52:39;6.60;;;4.97;;
30462;SDS011;17256;43.618;25.336;2023-10-31T16:55:09;5.03;;;4.07;;
30462;SDS011;17256;43.618;25.336;2023-10-31T16:57:36;5.37;;;4.67;;
30462;SDS011;17256;43.618;25.336;2023-10-31T17:00:05;8.07;;;5.13;;
30462;SDS011;17256;43.618;25.336;2023-10-31T17:02:34;7.83;;;4.73;;
30462;SDS011;17256;43.618;25.336;2023-10-31T17:05:08;16.90;;;5.53;;
30462;SDS011;17256;43.618;25.336;2023-10-31T17:07:34;11.47;;;6.23;;
30462;SDS011;17256;43.618;25.336;2023-10-31T17:10:01;10.57;;;8.03;;
30462;SDS011;17256;43.618;25.336;2023-10-31T17:12:31;11.67;;;8.67;;
30462;SDS011;17256;43.618;25.336;2023-10-31T17:14:59;15.23;;;11.63;;
30462;SDS011;17256;43.618;25.336;2023-10-31T17:17:27;15.57;;;10.87;;
30462;SDS011;17256;43.618;25.336;2023-10-31T17:19:54;16.27;;;11.03;;
30462;SDS011;17256;43.618;25.336;2023-10-31T17:22:22;22.03;;;11.37;;
30462;SDS011;17256;43.618;25.336;2023-10-31T17:24:51;19.27;;;11.73;;
30462;SDS011;17256;43.618;25.336;2023-10-31T17:27:28;16.97;;;12.73;;
30462;SDS011;17256;43.618;25.336;2023-10-31T17:29:57;19.10;;;12.57;;
30462;SDS011;17256;43.618;25.336;2023-10-31T17:32:45;15.67;;;10.93;;
30462;SDS011;17256;43.618;25.336;2023-10-31T17:35:14;24.50;;;16.93;;
30462;SDS011;17256;43.618;25.336;2023-10-31T17:41:42;15.77;;;10.60;;
30462;SDS011;17256;43.618;25.336;2023-10-31T17:44:15;17.80;;;11.70;;
30462;SDS011;17256;43.618;25.336;2023-10-31T17:46:55;20.57;;;11.67;;
30462;SDS011;17256;43.618;25.336;2023-10-31T17:49:55;18.27;;;10.67;;
30462;SDS011;17256;43.618;25.336;2023-10-31T17:52:23;10.27;;;6.23;;
30462;SDS011;17256;43.618;25.336;2023-10-31T17:55:06;5.97;;;4.60;;
30462;SDS011;17256;43.618;25.336;2023-10-31T18:15:50;4.27;;;3.80;;
30462;SDS011;17256;43.618;25.336;2023-10-31T18:43:12;11.90;;;5.80;;
30462;SDS011;17256;43.618;25.336;2023-10-31T19:09:15;8.53;;;4.23;;
30462;SDS011;17256;43.618;25.336;2023-10-31T19:12:51;8.63;;;4.03;;
30462;SDS011;17256;43.618;25.336;2023-10-31T19:30:57;7.77;;;4.83;;
30462;SDS011;17256;43.618;25.336;2023-10-31T20:36:39;6.30;;;4.20;;
30462;SDS011;17256;43.618;25.336;2023-10-31T20:39:26;8.60;;;4.70;;
30462;SDS011;17256;43.618;25.336;2023-10-31T20:43:06;3.53;;;3.07;;
30462;SDS011;17256;43.618;25.336;2023-10-31T20:49:54;4.47;;;3.47;;
30462;SDS011;17256;43.618;25.336;2023-10-31T22:23:42;6.70;;;4.00;;
30462;SDS011;17256;43.618;25.336;2023-10-31T22:51:13;2.87;;;2.50;;
